Orbital elements of HIMAWARI-3
| Launched | 1 August 1984 |
| Flight ended | – |
| Launch site | Tanegashima Space Center, Japan |
| Owner | Japan |
| NORAD ID | 15152 |
| Alternative names |
GMS-3 |
| Date fetched |
Epoch osculation |
Inc. [°] |
Ecc. | RA asc node [hr] |
Arg Peri. [°] |
Mean anom [°] |
Mean motion [rev/day] |
Abs. mag |
| Date fetched |
Epoch osculation |
Inc. [°] |
Ecc. | RA asc node [hr] |
Arg Peri. [°] |
Mean anom [°] |
Mean motion [rev/day] |
Abs. mag |
| 2026 May 08 17:57 | 2026 May 05 11:05:20 | 10.6923 | 0.00054 | 21.5968 | 128.2894 | 216.8687 | 0.99828 | – |
| 2026 May 07 17:58 | 2026 May 05 11:05:20 | 10.6923 | 0.00054 | 21.5968 | 128.2894 | 216.8687 | 0.99828 | – |
| 2026 May 06 17:57 | 2026 May 05 11:05:20 | 10.6923 | 0.00054 | 21.5968 | 128.2894 | 216.8687 | 0.99828 | – |
| 2026 May 05 17:57 | 2026 May 05 11:05:20 | 10.6923 | 0.00054 | 21.5968 | 128.2894 | 216.8687 | 0.99828 | – |
| 2026 May 04 17:57 | 2026 Apr 30 13:02:53 | 10.6999 | 0.00054 | 21.5988 | 127.9355 | 216.8687 | 0.99828 | – |
| 2026 May 03 17:57 | 2026 Apr 30 13:02:53 | 10.6999 | 0.00054 | 21.5988 | 127.9355 | 216.8687 | 0.99828 | – |
| 2026 May 02 17:57 | 2026 Apr 30 13:02:53 | 10.6999 | 0.00054 | 21.5988 | 127.9355 | 216.8687 | 0.99828 | – |
| 2026 May 01 17:56 | 2026 Apr 30 13:02:53 | 10.6999 | 0.00054 | 21.5988 | 127.9355 | 216.8687 | 0.99828 | – |
| 2026 Apr 30 17:56 | 2026 Apr 30 13:02:53 | 10.6999 | 0.00054 | 21.5988 | 127.9355 | 216.8687 | 0.99828 | – |
| 2026 Apr 29 17:57 | 2026 Apr 24 11:38:26 | 10.7090 | 0.00053 | 21.6012 | 126.7927 | 216.8687 | 0.99828 | – |
| 2026 Apr 28 17:56 | 2026 Apr 24 11:38:26 | 10.7090 | 0.00053 | 21.6012 | 126.7927 | 216.8687 | 0.99828 | – |
| 2026 Apr 27 17:58 | 2026 Apr 24 11:38:26 | 10.7090 | 0.00053 | 21.6012 | 126.7927 | 216.8687 | 0.99828 | – |
| 2026 Apr 26 17:58 | 2026 Apr 24 11:38:26 | 10.7090 | 0.00053 | 21.6012 | 126.7927 | 216.8687 | 0.99828 | – |
| 2026 Apr 25 17:58 | 2026 Apr 24 11:38:26 | 10.7090 | 0.00053 | 21.6012 | 126.7927 | 216.8687 | 0.99828 | – |
| 2026 Apr 24 17:59 | 2026 Apr 24 11:38:26 | 10.7090 | 0.00053 | 21.6012 | 126.7927 | 216.8687 | 0.99828 | – |
| 2026 Apr 23 17:57 | 2026 Apr 19 11:21:38 | 10.7164 | 0.00052 | 21.6033 | 125.5442 | 216.8687 | 0.99828 | – |
| 2026 Apr 22 17:57 | 2026 Apr 19 11:21:38 | 10.7164 | 0.00052 | 21.6033 | 125.5442 | 216.8687 | 0.99828 | – |
| 2026 Apr 21 17:57 | 2026 Apr 19 11:21:38 | 10.7164 | 0.00052 | 21.6033 | 125.5442 | 216.8687 | 0.99828 | – |
| 2026 Apr 20 17:57 | 2026 Apr 19 11:21:38 | 10.7164 | 0.00052 | 21.6033 | 125.5442 | 216.8687 | 0.99828 | – |
| 2026 Apr 19 17:58 | 2026 Apr 19 11:21:38 | 10.7164 | 0.00052 | 21.6033 | 125.5442 | 216.8687 | 0.99828 | – |
| 2026 Apr 18 17:56 | 2026 Apr 12 22:30:32 | 10.7263 | 0.00050 | 21.6060 | 124.5685 | 216.8687 | 0.99828 | – |
| 2026 Apr 16 17:57 | 2026 Apr 12 22:30:32 | 10.7263 | 0.00050 | 21.6060 | 124.5685 | 216.8687 | 0.99828 | – |
| 2026 Apr 14 17:57 | 2026 Apr 12 22:30:32 | 10.7263 | 0.00050 | 21.6060 | 124.5685 | 216.8687 | 0.99828 | – |
| 2026 Apr 13 17:57 | 2026 Apr 12 22:30:32 | 10.7263 | 0.00050 | 21.6060 | 124.5685 | 216.8687 | 0.99828 | – |
| 2026 Apr 12 17:57 | 2026 Apr 08 10:43:51 | 10.7331 | 0.00049 | 21.6078 | 124.7121 | 216.8687 | 0.99828 | – |
| 2026 Apr 11 17:57 | 2026 Apr 08 10:43:51 | 10.7331 | 0.00049 | 21.6078 | 124.7121 | 216.8687 | 0.99828 | – |